createdAt,value
2019-06-20T06:30:41.219Z,100207.11
2019-06-20T06:34:42.160Z,100214.38
2019-06-20T06:38:43.101Z,100223.08
2019-06-20T06:42:44.111Z,100225.62
2019-06-20T06:46:53.171Z,100229.05
2019-06-20T06:50:48.173Z,100239.95
2019-06-20T06:54:49.210Z,100241.13
2019-06-20T06:58:50.150Z,100238.05
2019-06-20T07:02:51.213Z,100248.04
2019-06-20T07:06:52.151Z,100243.60
2019-06-20T07:10:53.386Z,100251.91
2019-06-20T07:14:54.323Z,100252.39
2019-06-20T07:18:55.608Z,100245.64
2019-06-20T07:22:59.150Z,100246.83
2019-06-20T07:27:00.189Z,100242.83
2019-06-20T07:31:01.262Z,100249.77
2019-06-20T07:35:05.172Z,100250.55
2019-06-20T07:39:07.916Z,100253.13
2019-06-20T07:43:08.847Z,100255.28
2019-06-20T07:47:17.769Z,100253.27
2019-06-20T07:51:12.951Z,100246.72
2019-06-20T07:55:14.444Z,100250.41
2019-06-20T07:59:15.445Z,100254.23
2019-06-20T08:03:16.428Z,100253.20
2019-06-20T08:07:17.367Z,100260.14
2019-06-20T08:11:18.430Z,100265.53
2019-06-20T08:15:21.375Z,100256.70
2019-06-20T08:19:22.328Z,100266.55
2019-06-20T08:23:23.358Z,100262.93
2019-06-20T08:27:35.365Z,100269.95
2019-06-20T08:31:36.267Z,100265.03
2019-06-20T08:35:37.320Z,100260.11
2019-06-20T08:39:38.238Z,100258.59
2019-06-20T08:43:39.193Z,100268.16
2019-06-20T08:47:40.187Z,100269.67
2019-06-20T08:51:41.149Z,100285.64
2019-06-20T08:55:42.131Z,100276.58
2019-06-20T08:59:43.066Z,100284.87
2019-06-20T09:03:44.016Z,100283.57
2019-06-20T09:07:45.224Z,100275.38
2019-06-20T09:11:46.203Z,100281.47
2019-06-20T09:15:47.168Z,100280.14
2019-06-20T09:19:48.106Z,100278.13
2019-06-20T09:23:49.046Z,100280.32
2019-06-20T09:27:50.059Z,100285.08
2019-06-20T09:31:52.931Z,100292.22
2019-06-20T09:35:55.598Z,100286.05
2019-06-20T09:39:57.195Z,100288.02
2019-06-20T09:43:58.580Z,100289.55
2019-06-20T09:47:59.532Z,100285.95
2019-06-20T09:52:00.436Z,100280.22
2019-06-20T09:56:01.376Z,100284.99
2019-06-20T10:00:10.336Z,100287.88
2019-06-20T10:04:08.501Z,100285.05
2019-06-20T10:08:09.415Z,100290.83
2019-06-20T10:12:10.362Z,100295.77
2019-06-20T10:16:11.280Z,100302.39
2019-06-20T10:20:12.430Z,100304.55
2019-06-20T10:24:13.333Z,100315.20
2019-06-20T10:28:14.268Z,100301.00
2019-06-20T10:32:15.219Z,100302.81
2019-06-20T10:36:18.064Z,100305.64
2019-06-20T10:40:19.619Z,100310.34
2019-06-20T10:44:20.511Z,100302.55
2019-06-20T10:48:21.450Z,100311.58
2019-06-20T10:52:22.515Z,100305.71
2019-06-20T10:56:23.540Z,100308.31
2019-06-20T11:00:31.353Z,100305.86
2019-06-20T11:04:29.689Z,100310.60
2019-06-20T11:08:30.666Z,100309.19
2019-06-20T11:12:42.842Z,100314.59
2019-06-20T11:16:34.458Z,100314.98
2019-06-20T11:20:35.532Z,100318.92
2019-06-20T11:24:37.634Z,100321.52
2019-06-20T11:28:41.328Z,100323.39
2019-06-20T11:32:43.511Z,100332.22
2019-06-20T11:36:45.136Z,100336.17
2019-06-20T11:40:46.545Z,100329.54
2019-06-20T11:44:49.540Z,100316.42
2019-06-20T11:48:50.493Z,100310.53
2019-06-20T11:52:51.511Z,100299.32
2019-06-20T11:56:52.578Z,100306.03
2019-06-20T12:01:03.504Z,100311.27
2019-06-20T12:04:56.301Z,100312.45
2019-06-20T12:08:57.361Z,100315.13
2019-06-20T12:12:58.299Z,100320.42
2019-06-20T12:16:59.251Z,100313.27
2019-06-20T12:21:00.168Z,100316.47
2019-06-20T12:25:01.182Z,100318.55
2019-06-20T12:29:02.613Z,100311.97
2019-06-20T12:33:03.643Z,100309.72
2019-06-20T12:37:04.589Z,100312.72
2019-06-20T12:41:05.543Z,100312.45
2019-06-20T12:45:07.962Z,100320.05
2019-06-20T12:49:09.114Z,100320.61
2019-06-20T12:53:10.158Z,100306.06
2019-06-20T12:57:11.195Z,100310.21
2019-06-20T13:01:12.550Z,100309.44
2019-06-20T13:05:15.358Z,100319.76
2019-06-20T13:09:16.243Z,100325.63
2019-06-20T13:13:17.181Z,100317.27
2019-06-20T13:17:21.990Z,100318.69
2019-06-20T13:21:26.599Z,100307.17
2019-06-20T13:25:29.280Z,100300.98
2019-06-20T13:29:30.215Z,100293.15
2019-06-20T13:50:01.856Z,100286.75
2019-06-20T13:54:03.061Z,100291.95
2019-06-20T13:58:04.006Z,100282.42
2019-06-20T14:02:06.926Z,100277.41
2019-06-20T14:06:07.891Z,100279.30
2019-06-20T14:10:09.526Z,100279.58
2019-06-20T14:14:10.417Z,100279.77
2019-06-20T14:18:11.360Z,100280.36
2019-06-20T14:22:12.290Z,100275.95
2019-06-20T14:26:13.256Z,100275.30
2019-06-20T14:30:16.396Z,100269.25
2019-06-20T14:34:17.331Z,100271.36
2019-06-20T14:38:18.261Z,100271.05
2019-06-20T14:42:19.209Z,100276.84
2019-06-20T14:46:20.140Z,100279.34
2019-06-20T14:50:22.750Z,100282.08
2019-06-20T14:54:23.636Z,100279.34
2019-06-20T14:58:24.571Z,100276.38
2019-06-20T15:02:37.655Z,100279.08
2019-06-20T15:06:28.395Z,100279.78
2019-06-20T15:10:29.357Z,100279.67
2019-06-20T15:14:30.263Z,100276.65
2019-06-20T15:18:31.303Z,100276.08
2019-06-20T15:22:32.232Z,100280.87
2019-06-20T15:26:33.230Z,100275.89
2019-06-20T15:30:34.222Z,100282.61
2019-06-20T15:34:35.236Z,100268.75
2019-06-20T15:38:36.171Z,100264.86
2019-06-20T15:42:37.208Z,100259.80
2019-06-20T15:46:38.148Z,100262.23
2019-06-20T15:50:39.107Z,100269.38
2019-06-20T15:54:40.007Z,100265.95
2019-06-20T15:58:40.952Z,100261.56
2019-06-20T16:02:41.894Z,100261.11
2019-06-20T16:06:42.792Z,100266.58
2019-06-20T16:10:43.737Z,100267.64
2019-06-20T16:14:44.671Z,100274.13
2019-06-20T16:18:45.717Z,100276.05
2019-06-20T16:22:46.791Z,100286.70
2019-06-20T16:26:47.722Z,100287.92
2019-06-20T16:30:48.854Z,100285.22
2019-06-20T16:34:49.847Z,100289.16
2019-06-20T16:38:50.888Z,100292.47
2019-06-20T16:42:51.840Z,100277.60
2019-06-20T16:46:53.207Z,100272.84
2019-06-20T16:50:54.106Z,100266.02
2019-06-20T16:54:55.044Z,100257.87
2019-06-20T16:58:55.992Z,100264.53
2019-06-20T17:02:56.945Z,100266.75
2019-06-20T17:06:59.153Z,100277.48
2019-06-20T17:11:00.085Z,100272.69
2019-06-20T17:15:01.056Z,100293.30
2019-06-20T17:19:02.017Z,100299.19
2019-06-20T17:23:03.725Z,100298.46
2019-06-20T17:27:04.735Z,100297.95
2019-06-20T17:31:05.734Z,100287.11
2019-06-20T17:35:07.935Z,100287.41
2019-06-20T17:39:08.878Z,100286.86
2019-06-20T17:43:09.851Z,100284.35
2019-06-20T17:47:10.916Z,100286.62
2019-06-20T17:51:11.906Z,100303.06
2019-06-20T17:55:13.349Z,100313.09
2019-06-20T17:59:14.295Z,100310.86
2019-06-20T18:03:15.246Z,100310.01
2019-06-20T18:07:16.254Z,100322.52
2019-06-20T18:11:17.224Z,100318.91
2019-06-20T18:15:18.765Z,100319.69
2019-06-20T18:19:19.704Z,100317.99
2019-06-20T18:23:20.647Z,100329.94
2019-06-20T18:27:21.554Z,100342.43
2019-06-20T18:31:22.495Z,100364.06
2019-06-20T18:35:23.647Z,100375.31
2019-06-20T18:39:24.601Z,100382.50
2019-06-20T18:43:25.520Z,100381.98
2019-06-20T18:47:26.501Z,100388.42
2019-06-20T18:51:27.534Z,100381.52
2019-06-20T18:55:28.543Z,100380.97
2019-06-20T18:59:32.652Z,100380.55
2019-06-20T19:03:32.370Z,100389.75
2019-06-20T19:07:33.330Z,100388.44
2019-06-20T19:11:34.364Z,100387.64
2019-06-20T19:15:35.304Z,100398.14
2019-06-20T19:19:36.244Z,100404.98
2019-06-20T19:23:37.154Z,100410.30
2019-06-20T19:27:46.286Z,100411.80
2019-06-20T19:31:41.078Z,100416.22
2019-06-20T19:35:42.250Z,100418.15
2019-06-20T19:39:43.186Z,100407.50
2019-06-20T19:43:44.096Z,100406.81
2019-06-20T19:47:45.158Z,100409.13
2019-06-20T19:51:46.104Z,100416.20
2019-06-20T19:55:47.299Z,100430.00
2019-06-20T19:59:48.237Z,100472.98
2019-06-20T20:03:49.234Z,100520.34
2019-06-20T20:07:50.387Z,100536.75
2019-06-20T20:11:52.766Z,100529.47
2019-06-20T20:15:53.785Z,100536.70
2019-06-20T20:19:54.777Z,100566.28
2019-06-20T20:23:55.673Z,100562.08
2019-06-20T20:27:56.609Z,100559.86
2019-06-20T20:31:57.539Z,100570.96
2019-06-20T20:36:01.811Z,100559.67
2019-06-20T20:40:01.883Z,100561.50
2019-06-20T20:44:03.021Z,100544.17
2019-06-20T20:48:04.154Z,100547.47
2019-06-20T20:52:05.134Z,100544.02
2019-06-20T20:56:06.574Z,100551.92
2019-06-20T21:00:22.629Z,100551.86
2019-06-20T21:04:23.530Z,100553.16
2019-06-20T21:08:24.459Z,100552.31
2019-06-20T21:12:27.359Z,100554.93
2019-06-20T21:16:28.393Z,100558.06
2019-06-20T21:20:29.284Z,100560.75
2019-06-20T21:24:30.225Z,100567.62
2019-06-20T21:28:31.163Z,100569.17
2019-06-20T21:32:32.104Z,100571.11
2019-06-20T21:36:33.036Z,100572.49
2019-06-20T21:40:33.941Z,100576.05
2019-06-20T21:44:34.882Z,100573.89
2019-06-20T21:48:35.815Z,100579.95
2019-06-20T21:52:36.856Z,100586.68
2019-06-20T21:56:37.926Z,100596.44
2019-06-20T22:00:43.365Z,100591.94
2019-06-20T22:04:53.979Z,100603.61
2019-06-20T22:08:47.109Z,100605.42
2019-06-20T22:12:48.159Z,100606.03
2019-06-20T22:16:49.087Z,100609.64
2019-06-20T22:20:50.088Z,100610.17
2019-06-20T22:24:51.023Z,100625.53
2019-06-20T22:28:51.956Z,100620.17
2019-06-20T22:32:52.893Z,100624.16
2019-06-20T22:36:53.931Z,100619.67
2019-06-20T22:40:54.828Z,100624.00
2019-06-20T22:44:55.760Z,100626.07
2019-06-20T22:48:56.692Z,100631.77
2019-06-20T22:52:57.639Z,100625.14
2019-06-20T22:56:58.617Z,100623.77
2019-06-20T23:00:59.526Z,100626.75
2019-06-20T23:05:00.464Z,100640.05
2019-06-20T23:09:01.402Z,100637.79
2019-06-20T23:13:02.878Z,100639.09
2019-06-20T23:17:03.801Z,100646.23
2019-06-20T23:21:05.272Z,100656.19
2019-06-20T23:25:07.243Z,100651.52
2019-06-20T23:29:23.531Z,100659.17
2019-06-20T23:33:24.473Z,100667.90
2019-06-20T23:37:25.609Z,100673.83
2019-06-20T23:41:26.510Z,100671.61
2019-06-20T23:45:27.453Z,100680.91
2019-06-20T23:49:28.386Z,100673.23
2019-06-20T23:53:29.328Z,100678.86
2019-06-20T23:57:30.315Z,100674.64
